createdAt,value
2023-05-02T00:00:51.098Z,12.63
2023-05-02T00:03:17.762Z,12.64
2023-05-02T00:05:44.608Z,12.62
2023-05-02T00:08:12.043Z,12.69
2023-05-02T00:10:38.582Z,12.69
2023-05-02T00:13:05.149Z,12.63
2023-05-02T00:15:31.559Z,12.58
2023-05-02T00:17:58.159Z,12.60
2023-05-02T00:20:24.690Z,12.70
2023-05-02T00:22:51.141Z,12.72
2023-05-02T00:25:17.618Z,12.66
2023-05-02T00:27:46.488Z,12.66
2023-05-02T00:30:13.991Z,12.76
2023-05-02T00:32:40.681Z,12.76
2023-05-02T00:35:08.106Z,12.73
2023-05-02T00:37:34.915Z,12.72
2023-05-02T00:40:01.969Z,12.71
2023-05-02T00:42:32.917Z,12.74
2023-05-02T00:44:59.299Z,12.77
2023-05-02T00:47:26.294Z,12.74
2023-05-02T00:49:52.738Z,12.77
2023-05-02T00:52:19.519Z,12.74
2023-05-02T00:54:47.178Z,12.78
2023-05-02T00:57:13.542Z,12.82
2023-05-02T00:59:39.999Z,12.82
2023-05-02T01:02:25.599Z,12.80
2023-05-02T01:05:10.614Z,12.87
2023-05-02T01:08:09.180Z,12.88
2023-05-02T01:10:48.315Z,12.92
2023-05-02T01:13:22.431Z,12.88
2023-05-02T01:15:51.921Z,12.82
2023-05-02T01:18:22.458Z,12.86
2023-05-02T01:20:53.186Z,12.88
2023-05-02T01:23:32.736Z,12.82
2023-05-02T01:26:20.575Z,12.86
2023-05-02T01:28:59.339Z,12.80
2023-05-02T01:31:29.027Z,12.85
2023-05-02T01:33:58.755Z,12.83
2023-05-02T01:36:28.054Z,12.84
2023-05-02T01:38:56.490Z,12.81
2023-05-02T01:41:26.885Z,12.76
2023-05-02T01:43:59.208Z,12.76
2023-05-02T01:46:28.608Z,12.71
2023-05-02T01:48:58.763Z,12.69
2023-05-02T01:51:31.862Z,12.72
2023-05-02T01:54:07.037Z,12.66
2023-05-02T01:56:36.673Z,12.64
2023-05-02T01:59:06.554Z,12.62
2023-05-02T02:01:36.460Z,12.58
2023-05-02T02:04:05.789Z,12.57
2023-05-02T02:06:33.024Z,12.60
2023-05-02T02:08:59.952Z,12.60
2023-05-02T02:11:49.208Z,12.61
2023-05-02T02:14:21.682Z,12.65
2023-05-02T02:16:50.864Z,12.70
2023-05-02T02:19:18.258Z,12.76
2023-05-02T02:21:48.443Z,12.71
2023-05-02T02:24:18.573Z,12.72
2023-05-02T02:26:45.000Z,12.71
2023-05-02T02:29:11.915Z,12.66
2023-05-02T02:31:39.780Z,12.64
2023-05-02T02:34:06.418Z,12.65
2023-05-02T02:36:47.850Z,12.63
2023-05-02T02:39:42.109Z,12.61
2023-05-02T02:42:18.897Z,12.61
2023-05-02T02:45:20.579Z,12.60
2023-05-02T02:48:35.833Z,12.66
2023-05-02T02:51:02.220Z,12.63
2023-05-02T02:53:40.507Z,12.69
2023-05-02T02:56:30.919Z,12.67
2023-05-02T02:59:00.153Z,12.67
2023-05-02T03:01:30.955Z,12.55
2023-05-02T03:03:57.422Z,12.60
2023-05-02T03:06:24.900Z,12.64
2023-05-02T03:08:51.449Z,12.64
2023-05-02T03:11:17.821Z,12.64
2023-05-02T03:13:44.237Z,12.69
2023-05-02T03:16:25.231Z,12.68
2023-05-02T03:18:51.626Z,12.62
2023-05-02T03:21:18.161Z,12.60
2023-05-02T03:23:44.587Z,12.60
2023-05-02T03:26:11.048Z,12.62
2023-05-02T03:28:37.474Z,12.61
2023-05-02T03:31:03.976Z,12.56
2023-05-02T03:33:30.462Z,12.50
2023-05-02T03:35:56.859Z,12.45
2023-05-02T03:38:23.273Z,12.45
2023-05-02T03:40:49.829Z,12.44
2023-05-02T03:43:16.262Z,12.32
2023-05-02T03:45:42.665Z,12.25
2023-05-02T03:48:09.105Z,12.27
2023-05-02T03:50:35.568Z,12.33
2023-05-02T03:53:01.973Z,12.40
2023-05-02T03:55:28.424Z,12.38
2023-05-02T03:57:54.846Z,12.39
2023-05-02T04:00:21.443Z,12.34
2023-05-02T04:02:47.952Z,12.32
2023-05-02T04:05:14.871Z,12.33
2023-05-02T04:07:41.378Z,12.29
2023-05-02T04:10:15.544Z,12.32
2023-05-02T04:12:43.240Z,12.31
2023-05-02T04:15:10.710Z,12.31
2023-05-02T04:17:37.837Z,12.29
2023-05-02T04:20:05.688Z,12.26
2023-05-02T04:22:33.098Z,12.25
2023-05-02T04:24:59.988Z,12.24
2023-05-02T04:27:26.956Z,12.22
2023-05-02T04:29:53.583Z,12.25
2023-05-02T04:32:19.994Z,12.23
2023-05-02T04:34:46.411Z,12.24
2023-05-02T04:37:12.807Z,12.26
2023-05-02T04:39:39.231Z,12.24
2023-05-02T04:42:05.962Z,12.25
2023-05-02T04:44:32.383Z,12.28
2023-05-02T04:46:58.810Z,12.25
2023-05-02T04:49:25.209Z,12.30
2023-05-02T04:51:53.145Z,12.32
2023-05-02T04:54:19.572Z,12.33
2023-05-02T04:56:46.586Z,12.29
2023-05-02T04:59:13.138Z,12.34
2023-05-02T05:01:39.761Z,12.35
2023-05-02T05:04:06.368Z,12.34
2023-05-02T05:06:33.191Z,12.37
2023-05-02T05:09:00.033Z,12.41
2023-05-02T05:11:26.480Z,12.42
2023-05-02T05:13:52.970Z,12.45
2023-05-02T05:16:19.508Z,12.49
2023-05-02T05:18:47.280Z,12.55
2023-05-02T05:21:13.728Z,12.51
2023-05-02T05:23:45.751Z,12.53
2023-05-02T05:26:13.448Z,12.52
2023-05-02T05:28:39.873Z,12.55
2023-05-02T05:31:15.963Z,12.50
2023-05-02T05:33:43.784Z,12.48
2023-05-02T05:36:12.299Z,12.52
2023-05-02T05:38:38.740Z,12.53
2023-05-02T05:41:05.570Z,12.51
2023-05-02T05:43:32.017Z,12.58
2023-05-02T05:45:58.430Z,12.63
2023-05-02T05:48:25.458Z,12.70
2023-05-02T05:50:54.859Z,12.71
2023-05-02T05:53:21.581Z,12.75
2023-05-02T05:55:48.013Z,12.80
2023-05-02T05:58:14.699Z,12.84
2023-05-02T06:00:41.858Z,12.86
2023-05-02T06:03:09.700Z,12.87
2023-05-02T06:05:36.665Z,12.98
2023-05-02T06:08:03.240Z,12.99
2023-05-02T06:10:31.177Z,13.01
2023-05-02T06:12:57.608Z,13.05
2023-05-02T06:15:24.134Z,13.03
2023-05-02T06:17:51.837Z,13.02
2023-05-02T06:20:18.811Z,12.95
2023-05-02T06:22:45.609Z,12.92
2023-05-02T06:25:12.106Z,12.98
2023-05-02T06:27:38.561Z,13.04
2023-05-02T06:30:06.100Z,13.12
2023-05-02T06:32:32.707Z,13.16
2023-05-02T06:34:59.191Z,13.24
2023-05-02T06:37:25.739Z,13.24
2023-05-02T06:39:52.201Z,13.23
2023-05-02T06:42:18.641Z,13.22
2023-05-02T06:44:45.118Z,13.26
2023-05-02T06:47:11.693Z,13.27
2023-05-02T06:49:38.346Z,13.36
2023-05-02T06:52:04.786Z,13.32
2023-05-02T06:54:31.185Z,13.36
2023-05-02T06:56:57.621Z,13.40
2023-05-02T06:59:24.036Z,13.44
2023-05-02T07:01:50.648Z,13.39
2023-05-02T07:04:17.147Z,13.44
2023-05-02T07:06:43.707Z,13.50
2023-05-02T07:09:10.130Z,13.50
2023-05-02T07:11:36.533Z,13.53
2023-05-02T07:14:02.991Z,13.62
2023-05-02T07:16:29.626Z,13.66
2023-05-02T07:18:56.268Z,13.67
2023-05-02T07:21:22.695Z,13.64
2023-05-02T07:23:49.090Z,13.69
2023-05-02T07:26:15.595Z,13.73
2023-05-02T07:28:42.007Z,13.82
2023-05-02T07:31:08.433Z,13.85
2023-05-02T07:33:34.904Z,13.92
2023-05-02T07:36:02.542Z,13.91
2023-05-02T07:38:29.000Z,13.89
2023-05-02T07:40:58.790Z,13.99
2023-05-02T07:43:25.397Z,14.03
2023-05-02T07:45:52.073Z,14.09
2023-05-02T07:48:18.542Z,14.18
2023-05-02T07:50:45.298Z,14.14
2023-05-02T07:53:11.840Z,14.14
2023-05-02T07:55:38.494Z,14.16
2023-05-02T07:58:04.916Z,14.22
2023-05-02T08:00:31.409Z,14.19
2023-05-02T08:02:57.954Z,14.14
2023-05-02T08:05:24.528Z,14.18
2023-05-02T08:07:51.059Z,14.27
2023-05-02T08:10:17.542Z,14.31
2023-05-02T08:12:43.956Z,14.32
2023-05-02T08:15:13.558Z,14.38
2023-05-02T08:17:40.196Z,14.40
2023-05-02T08:20:07.430Z,14.40
2023-05-02T08:22:33.990Z,14.44
2023-05-02T08:25:02.780Z,14.49
2023-05-02T08:27:29.662Z,14.60
2023-05-02T08:29:58.503Z,14.68
2023-05-02T08:32:26.933Z,14.77
2023-05-02T08:34:59.904Z,14.86
2023-05-02T08:37:26.491Z,14.97
2023-05-02T08:39:52.936Z,15.03
2023-05-02T08:42:22.834Z,14.99
2023-05-02T08:44:49.964Z,15.08
2023-05-02T08:47:18.448Z,15.19
2023-05-02T08:49:46.490Z,15.34
2023-05-02T08:52:14.372Z,15.54
2023-05-02T08:54:41.491Z,15.80
2023-05-02T08:57:07.940Z,16.03
2023-05-02T08:59:34.434Z,16.30
2023-05-02T09:02:56.443Z,16.18
2023-05-02T09:05:25.079Z,16.12
2023-05-02T09:07:52.111Z,16.07
2023-05-02T09:10:18.798Z,16.17
2023-05-02T09:12:45.347Z,16.28
2023-05-02T09:15:19.879Z,16.57
2023-05-02T09:17:50.332Z,16.60
2023-05-02T09:20:16.953Z,16.35
2023-05-02T09:22:52.969Z,16.17
2023-05-02T09:25:20.100Z,16.12
2023-05-02T09:28:04.774Z,16.02
2023-05-02T09:30:31.289Z,16.03
2023-05-02T09:32:57.712Z,15.99
2023-05-02T09:35:24.355Z,15.97
2023-05-02T09:37:56.081Z,15.97
2023-05-02T09:40:24.295Z,15.99
2023-05-02T09:42:51.566Z,15.98
2023-05-02T09:45:23.844Z,15.97
2023-05-02T09:47:51.551Z,16.00
2023-05-02T09:50:38.588Z,16.05
2023-05-02T09:53:09.814Z,16.06
2023-05-02T09:55:36.547Z,16.06
2023-05-02T09:58:03.996Z,16.06
2023-05-02T10:00:45.122Z,16.12
2023-05-02T10:03:18.685Z,16.30
2023-05-02T10:05:48.660Z,16.36
2023-05-02T10:08:18.524Z,16.36
2023-05-02T10:10:50.948Z,16.33
2023-05-02T10:13:21.557Z,16.30
2023-05-02T10:16:00.749Z,16.34
2023-05-02T10:18:28.583Z,16.34
2023-05-02T10:21:01.600Z,16.37
2023-05-02T10:23:29.765Z,16.49
2023-05-02T10:26:00.184Z,16.51
2023-05-02T10:28:27.894Z,16.53
2023-05-02T10:30:54.896Z,16.50
2023-05-02T10:33:22.543Z,16.47
2023-05-02T10:35:49.718Z,16.44
2023-05-02T10:38:20.058Z,16.41
2023-05-02T10:40:55.849Z,16.40
2023-05-02T10:43:28.141Z,16.39
2023-05-02T10:45:55.115Z,16.41
2023-05-02T10:48:27.670Z,16.41
2023-05-02T10:50:55.713Z,16.38
2023-05-02T10:53:32.057Z,16.39
2023-05-02T10:56:14.355Z,16.39
2023-05-02T10:58:41.958Z,16.42
2023-05-02T11:01:29.665Z,16.43
2023-05-02T11:03:59.013Z,16.42
2023-05-02T11:06:30.889Z,16.33
2023-05-02T11:09:15.788Z,16.28
2023-05-02T11:11:46.461Z,16.37
2023-05-02T11:14:38.665Z,16.32
2023-05-02T11:17:05.078Z,16.34
2023-05-02T11:19:39.729Z,16.35
2023-05-02T11:22:21.736Z,16.36
2023-05-02T11:24:49.535Z,16.35
2023-05-02T11:27:31.967Z,16.37
2023-05-02T11:30:09.531Z,16.46
2023-05-02T11:32:49.522Z,16.49
2023-05-02T11:35:17.676Z,16.52
2023-05-02T11:37:52.854Z,16.61
2023-05-02T11:40:19.717Z,16.68
2023-05-02T11:42:46.964Z,16.70
2023-05-02T11:45:13.681Z,16.73
2023-05-02T11:47:42.103Z,16.78
2023-05-02T11:50:11.822Z,16.87
2023-05-02T11:52:39.503Z,16.97
2023-05-02T11:55:08.235Z,17.03
2023-05-02T11:57:36.923Z,17.08
2023-05-02T12:00:04.863Z,17.10
2023-05-02T12:02:39.327Z,17.22
2023-05-02T12:05:07.496Z,17.29
2023-05-02T12:07:41.161Z,17.35
2023-05-02T12:10:09.012Z,17.42
2023-05-02T12:12:36.855Z,17.53
2023-05-02T12:15:11.166Z,17.70
2023-05-02T12:17:40.621Z,17.85
2023-05-02T12:20:08.951Z,17.82
2023-05-02T12:22:36.116Z,17.81
2023-05-02T12:25:05.807Z,17.81
2023-05-02T12:27:33.430Z,17.98
2023-05-02T12:30:00.657Z,17.90
2023-05-02T12:32:32.320Z,17.72
2023-05-02T12:34:59.649Z,17.69
2023-05-02T12:37:27.751Z,17.69
2023-05-02T12:39:55.755Z,17.75
2023-05-02T12:42:24.624Z,17.82
2023-05-02T12:44:52.288Z,17.83
2023-05-02T12:47:19.811Z,17.83
2023-05-02T12:49:54.507Z,17.81
2023-05-02T12:52:51.090Z,17.96
2023-05-02T12:55:24.373Z,17.88
2023-05-02T12:57:51.424Z,17.96
2023-05-02T13:00:21.168Z,18.02
2023-05-02T13:02:47.667Z,17.96
2023-05-02T13:05:18.648Z,17.87
2023-05-02T13:07:45.571Z,17.96
2023-05-02T13:10:13.507Z,18.12
2023-05-02T13:12:40.116Z,18.08
2023-05-02T13:15:08.333Z,17.94
2023-05-02T13:17:35.755Z,17.75
2023-05-02T13:20:03.431Z,17.86
2023-05-02T13:22:30.245Z,18.02
2023-05-02T13:24:56.708Z,18.03
2023-05-02T13:27:24.705Z,18.09
2023-05-02T13:29:51.655Z,17.94
2023-05-02T13:32:18.736Z,17.83
2023-05-02T13:34:45.486Z,17.89
2023-05-02T13:37:12.149Z,18.11
2023-05-02T13:39:38.839Z,18.11
2023-05-02T13:42:06.436Z,18.28
2023-05-02T13:44:33.225Z,18.33
2023-05-02T13:46:59.758Z,18.30
2023-05-02T13:49:26.478Z,18.27
2023-05-02T13:51:53.209Z,18.26
2023-05-02T13:54:19.772Z,18.29
2023-05-02T13:56:46.345Z,18.52
2023-05-02T13:59:12.860Z,18.58
2023-05-02T14:01:40.658Z,18.34
2023-05-02T14:04:09.110Z,18.12
2023-05-02T14:06:36.147Z,18.09
2023-05-02T14:09:03.579Z,18.13
2023-05-02T14:11:30.211Z,18.42
2023-05-02T14:13:58.332Z,18.59
2023-05-02T14:16:25.332Z,18.65
2023-05-02T14:18:51.918Z,18.78
2023-05-02T14:21:18.588Z,18.59
2023-05-02T14:23:45.227Z,18.47
2023-05-02T14:26:12.799Z,18.52
2023-05-02T14:28:40.482Z,18.59
2023-05-02T14:31:07.425Z,18.67
2023-05-02T14:33:33.980Z,18.56
2023-05-02T14:36:00.671Z,18.50
2023-05-02T14:38:27.198Z,18.46
2023-05-02T14:40:55.079Z,18.53
2023-05-02T14:43:21.648Z,18.52
2023-05-02T14:45:48.167Z,18.54
2023-05-02T14:48:16.997Z,18.75
2023-05-02T14:50:44.169Z,18.64
2023-05-02T14:53:11.644Z,18.59
2023-05-02T14:55:39.319Z,18.48
2023-05-02T14:58:10.289Z,18.51
2023-05-02T15:00:37.691Z,18.54
2023-05-02T15:03:07.592Z,18.66
2023-05-02T15:05:34.307Z,18.67
2023-05-02T15:08:01.493Z,18.64
2023-05-02T15:10:28.317Z,18.65
2023-05-02T15:12:54.821Z,18.71
2023-05-02T15:15:25.444Z,18.69
2023-05-02T15:17:53.034Z,18.76
2023-05-02T15:20:19.953Z,18.75
2023-05-02T15:22:46.818Z,18.63
2023-05-02T15:25:13.654Z,18.57
2023-05-02T15:27:40.266Z,18.60
2023-05-02T15:30:07.512Z,18.57
2023-05-02T15:32:34.138Z,18.45
2023-05-02T15:35:00.747Z,18.48
2023-05-02T15:37:27.359Z,18.35
2023-05-02T15:39:53.876Z,18.28
2023-05-02T15:42:20.472Z,18.25
2023-05-02T15:44:46.854Z,18.27
2023-05-02T15:47:13.294Z,18.33
2023-05-02T15:49:40.540Z,18.56
2023-05-02T15:52:06.990Z,18.66
2023-05-02T15:54:33.753Z,18.57
2023-05-02T15:57:00.784Z,18.41
2023-05-02T15:59:27.249Z,18.30
2023-05-02T16:01:53.752Z,18.21
2023-05-02T16:04:20.220Z,18.13
2023-05-02T16:06:46.827Z,18.18
2023-05-02T16:09:13.347Z,18.21
2023-05-02T16:11:39.815Z,18.18
2023-05-02T16:14:06.315Z,18.16
2023-05-02T16:16:34.061Z,18.16
2023-05-02T16:19:00.792Z,18.06
2023-05-02T16:21:27.295Z,18.00
2023-05-02T16:23:53.779Z,18.02
2023-05-02T16:26:20.856Z,18.09
2023-05-02T16:28:47.370Z,18.08
2023-05-02T16:31:14.908Z,17.98
2023-05-02T16:33:42.757Z,17.98
2023-05-02T16:36:09.731Z,17.83
2023-05-02T16:38:36.604Z,17.73
2023-05-02T16:41:05.111Z,17.65
2023-05-02T16:43:31.568Z,17.60
2023-05-02T16:46:05.893Z,17.58
2023-05-02T16:48:39.466Z,17.52
2023-05-02T16:51:05.976Z,17.47
2023-05-02T16:53:32.467Z,17.50
2023-05-02T16:55:59.696Z,17.49
2023-05-02T16:58:28.767Z,17.46
2023-05-02T17:00:55.593Z,17.45
2023-05-02T17:03:22.150Z,17.48
2023-05-02T17:05:48.619Z,17.45
2023-05-02T17:08:17.108Z,17.49
2023-05-02T17:10:48.778Z,17.47
2023-05-02T17:13:15.256Z,17.39
2023-05-02T17:15:41.953Z,17.36
2023-05-02T17:18:08.548Z,17.34
2023-05-02T17:20:36.041Z,17.19
2023-05-02T17:23:02.986Z,17.17
2023-05-02T17:25:30.364Z,17.17
2023-05-02T17:27:56.824Z,17.22
2023-05-02T17:30:24.700Z,17.14
2023-05-02T17:32:51.255Z,17.10
2023-05-02T17:35:17.901Z,17.04
2023-05-02T17:37:44.462Z,17.00
2023-05-02T17:40:12.254Z,16.87
2023-05-02T17:42:38.959Z,16.85
2023-05-02T17:45:06.792Z,16.82
2023-05-02T17:47:33.315Z,16.86
2023-05-02T17:50:02.628Z,16.84
2023-05-02T17:52:29.320Z,16.86
2023-05-02T17:54:55.753Z,16.86
2023-05-02T17:57:22.717Z,16.75
2023-05-02T17:59:50.636Z,16.72
2023-05-02T18:02:17.799Z,16.76
2023-05-02T18:04:45.528Z,16.71
2023-05-02T18:07:11.993Z,16.66
2023-05-02T18:09:38.481Z,16.66
2023-05-02T18:12:06.094Z,16.63
2023-05-02T18:14:32.816Z,16.59
2023-05-02T18:16:59.242Z,16.60
2023-05-02T18:19:25.720Z,16.59
2023-05-02T18:21:52.466Z,16.51
2023-05-02T18:24:18.992Z,16.48
2023-05-02T18:26:48.330Z,16.45
2023-05-02T18:29:15.021Z,16.42
2023-05-02T18:31:42.344Z,16.38
2023-05-02T18:34:09.124Z,16.38
2023-05-02T18:36:35.586Z,16.37
2023-05-02T18:39:02.025Z,16.34
2023-05-02T18:41:28.486Z,16.31
2023-05-02T18:43:54.948Z,16.26
2023-05-02T18:46:21.355Z,16.26
2023-05-02T18:48:48.369Z,16.26
2023-05-02T18:51:14.934Z,16.25
2023-05-02T18:53:41.410Z,16.23
2023-05-02T18:56:14.439Z,16.16
2023-05-02T18:58:42.082Z,16.16
2023-05-02T19:01:15.795Z,16.15
2023-05-02T19:03:43.526Z,16.17
2023-05-02T19:06:10.780Z,16.14
2023-05-02T19:08:37.286Z,16.12
2023-05-02T19:11:04.193Z,16.09
2023-05-02T19:13:31.157Z,16.03
2023-05-02T19:15:57.607Z,16.01
2023-05-02T19:18:24.106Z,15.98
2023-05-02T19:20:50.610Z,16.04
2023-05-02T19:23:20.497Z,16.02
2023-05-02T19:25:47.505Z,16.02
2023-05-02T19:28:16.738Z,15.98
2023-05-02T19:30:44.554Z,15.97
2023-05-02T19:33:11.644Z,15.97
2023-05-02T19:35:38.418Z,15.94
2023-05-02T19:38:04.852Z,15.89
2023-05-02T19:40:31.412Z,15.88
2023-05-02T19:42:57.870Z,15.89
2023-05-02T19:45:24.306Z,15.90
2023-05-02T19:47:50.816Z,15.84
2023-05-02T19:50:17.414Z,15.82
2023-05-02T19:52:44.845Z,15.73
2023-05-02T19:55:11.307Z,15.64
2023-05-02T19:57:37.819Z,15.63
2023-05-02T20:00:05.883Z,15.53
2023-05-02T20:02:33.656Z,15.42
2023-05-02T20:05:00.236Z,15.37
2023-05-02T20:07:26.732Z,15.32
2023-05-02T20:09:53.205Z,15.30
2023-05-02T20:12:19.676Z,15.31
2023-05-02T20:14:46.119Z,15.31
2023-05-02T20:17:12.513Z,15.22
2023-05-02T20:19:39.013Z,15.13
2023-05-02T20:22:05.441Z,14.99
2023-05-02T20:24:31.881Z,14.97
2023-05-02T20:26:58.394Z,14.91
2023-05-02T20:29:25.126Z,14.86
2023-05-02T20:31:51.911Z,14.76
2023-05-02T20:34:18.961Z,14.60
2023-05-02T20:36:45.362Z,14.63
2023-05-02T20:39:12.264Z,14.63
2023-05-02T20:41:38.861Z,14.67
2023-05-02T20:44:05.777Z,14.58
2023-05-02T20:46:32.581Z,14.53
2023-05-02T20:48:59.392Z,14.61
2023-05-02T20:51:29.617Z,14.59
2023-05-02T20:53:56.344Z,14.56
2023-05-02T20:56:23.176Z,14.51
2023-05-02T20:58:49.616Z,14.51
2023-05-02T21:01:16.071Z,14.51
2023-05-02T21:03:42.646Z,14.54
2023-05-02T21:06:09.255Z,14.58
2023-05-02T21:08:36.855Z,14.56
2023-05-02T21:11:12.398Z,14.60
2023-05-02T21:13:40.359Z,14.63
2023-05-02T21:16:14.527Z,14.58
2023-05-02T21:18:41.728Z,14.55
2023-05-02T21:21:08.643Z,14.51
2023-05-02T21:23:35.444Z,14.51
2023-05-02T21:26:01.873Z,14.47
2023-05-02T21:28:28.580Z,14.39
2023-05-02T21:30:54.972Z,14.46
2023-05-02T21:33:21.419Z,14.50
2023-05-02T21:35:47.829Z,14.48
2023-05-02T21:38:14.278Z,14.46
2023-05-02T21:40:40.840Z,14.57
2023-05-02T21:43:07.258Z,14.60
2023-05-02T21:45:34.709Z,14.60
2023-05-02T21:48:01.439Z,14.60
2023-05-02T21:50:29.346Z,14.60
2023-05-02T21:52:55.771Z,14.60
2023-05-02T21:55:22.253Z,14.57
2023-05-02T21:57:48.672Z,14.54
2023-05-02T22:00:15.230Z,14.48
2023-05-02T22:02:41.716Z,14.44
2023-05-02T22:05:08.428Z,14.41
2023-05-02T22:07:34.860Z,14.36
2023-05-02T22:10:01.444Z,14.23
2023-05-02T22:12:28.073Z,14.16
2023-05-02T22:14:54.845Z,14.16
2023-05-02T22:17:22.689Z,14.19
2023-05-02T22:19:52.260Z,14.14
2023-05-02T22:22:18.701Z,14.21
2023-05-02T22:24:45.129Z,14.25
2023-05-02T22:27:11.665Z,14.30
2023-05-02T22:29:38.079Z,14.32
2023-05-02T22:32:04.751Z,14.34
2023-05-02T22:34:31.326Z,14.35
2023-05-02T22:36:57.749Z,14.30
2023-05-02T22:39:24.420Z,14.19
2023-05-02T22:41:50.852Z,14.13
2023-05-02T22:44:17.317Z,14.12
2023-05-02T22:46:43.853Z,14.06
2023-05-02T22:49:10.454Z,14.10
2023-05-02T22:51:41.486Z,14.11
2023-05-02T22:54:08.437Z,14.04
2023-05-02T22:56:35.015Z,14.03
2023-05-02T22:59:01.459Z,14.01
2023-05-02T23:01:28.122Z,13.92
2023-05-02T23:03:54.736Z,13.89
2023-05-02T23:06:21.290Z,13.95
2023-05-02T23:08:47.808Z,13.97
2023-05-02T23:11:14.204Z,13.95
2023-05-02T23:13:40.842Z,13.85
2023-05-02T23:16:07.337Z,13.87
2023-05-02T23:18:33.809Z,13.86
2023-05-02T23:21:00.476Z,13.76
2023-05-02T23:23:26.882Z,13.71
2023-05-02T23:25:53.309Z,13.76
2023-05-02T23:28:19.859Z,13.81
2023-05-02T23:30:46.753Z,13.85
2023-05-02T23:33:13.797Z,13.94
2023-05-02T23:35:40.439Z,13.92
2023-05-02T23:38:08.187Z,13.80
2023-05-02T23:40:34.909Z,13.83
2023-05-02T23:43:01.586Z,13.84
2023-05-02T23:45:28.019Z,13.87
2023-05-02T23:47:54.536Z,13.83
2023-05-02T23:50:20.939Z,13.83
2023-05-02T23:52:47.366Z,13.72
2023-05-02T23:55:13.774Z,13.72
2023-05-02T23:57:40.244Z,13.79
